createdAt,value
2023-01-13T00:01:15.115Z,15.40
2023-01-13T00:03:42.225Z,14.38
2023-01-13T00:06:10.221Z,19.85
2023-01-13T00:08:37.244Z,18.05
2023-01-13T00:11:04.289Z,13.15
2023-01-13T00:13:33.068Z,15.90
2023-01-13T00:16:04.672Z,12.35
2023-01-13T00:18:32.037Z,18.38
2023-01-13T00:21:03.475Z,16.35
2023-01-13T00:23:31.452Z,15.25
2023-01-13T00:26:06.023Z,13.90
2023-01-13T00:28:33.430Z,12.05
2023-01-13T00:31:08.671Z,13.30
2023-01-13T00:33:35.926Z,12.23
2023-01-13T00:36:03.164Z,12.25
2023-01-13T00:38:31.295Z,13.20
2023-01-13T00:41:09.720Z,9.20
2023-01-13T00:43:36.898Z,14.60
2023-01-13T00:46:08.209Z,11.98
2023-01-13T00:48:35.439Z,12.32
2023-01-13T00:51:07.750Z,11.20
2023-01-13T00:53:36.447Z,9.00
2023-01-13T00:56:08.365Z,12.13
2023-01-13T01:01:22.546Z,10.98
2023-01-13T01:03:50.242Z,10.82
2023-01-13T01:06:18.842Z,10.05
2023-01-13T01:08:45.829Z,13.00
2023-01-13T01:11:15.134Z,9.57
2023-01-13T01:13:42.239Z,10.10
2023-01-13T01:16:11.146Z,9.68
2023-01-13T01:18:39.663Z,11.73
2023-01-13T01:21:07.260Z,10.55
2023-01-13T01:23:34.541Z,13.05
2023-01-13T01:26:02.511Z,12.25
2023-01-13T01:28:30.032Z,9.15
2023-01-13T01:30:58.591Z,10.50
2023-01-13T01:33:26.311Z,10.70
2023-01-13T01:35:54.057Z,13.60
2023-01-13T01:38:22.386Z,14.93
2023-01-13T01:40:49.866Z,14.63
2023-01-13T01:43:37.265Z,16.85
2023-01-13T01:46:04.302Z,11.80
2023-01-13T01:48:34.178Z,11.30
2023-01-13T01:51:01.325Z,13.73
2023-01-13T01:53:28.339Z,13.30
2023-01-13T01:55:55.314Z,13.45
2023-01-13T01:58:25.361Z,12.00
2023-01-13T02:00:52.564Z,12.75
2023-01-13T02:03:19.637Z,14.57
2023-01-13T02:05:46.632Z,15.88
2023-01-13T02:08:13.629Z,16.33
2023-01-13T02:10:41.191Z,17.02
2023-01-13T02:13:10.402Z,12.93
2023-01-13T02:15:50.162Z,16.25
2023-01-13T02:18:41.044Z,13.32
2023-01-13T02:21:27.932Z,15.90
2023-01-13T02:24:15.013Z,15.77
2023-01-13T02:26:44.751Z,12.02
2023-01-13T02:29:48.816Z,14.50
2023-01-13T02:32:32.179Z,14.68
2023-01-13T02:35:20.594Z,14.68
2023-01-13T02:37:47.578Z,14.52
2023-01-13T02:40:23.276Z,15.93
2023-01-13T02:43:16.230Z,16.10
2023-01-13T02:45:53.172Z,14.23
2023-01-13T02:48:21.748Z,12.00
2023-01-13T02:51:09.548Z,14.63
2023-01-13T02:53:39.248Z,11.48
2023-01-13T02:56:06.636Z,12.05
2023-01-13T02:58:33.700Z,14.15
2023-01-13T03:01:01.103Z,12.88
2023-01-13T03:03:28.094Z,13.55
2023-01-13T03:06:01.519Z,13.82
2023-01-13T03:08:31.355Z,11.27
2023-01-13T03:11:05.918Z,10.68
2023-01-13T03:13:44.993Z,15.07
2023-01-13T03:16:41.452Z,15.40
2023-01-13T03:19:24.873Z,14.90
2023-01-13T03:21:56.840Z,15.05
2023-01-13T03:24:30.822Z,12.82
2023-01-13T03:27:11.856Z,14.27
2023-01-13T03:29:46.110Z,11.70
2023-01-13T03:32:14.928Z,15.15
2023-01-13T03:34:45.984Z,14.10
2023-01-13T03:37:14.244Z,15.55
2023-01-13T03:39:44.195Z,16.23
2023-01-13T03:42:14.782Z,13.18
2023-01-13T03:44:47.719Z,17.67
2023-01-13T03:47:34.974Z,15.57
2023-01-13T03:50:15.381Z,19.27
2023-01-13T03:53:12.906Z,18.70
2023-01-13T03:55:48.325Z,14.27
2023-01-13T03:58:17.758Z,13.82
2023-01-13T04:00:48.253Z,18.17
2023-01-13T04:03:32.097Z,14.75
2023-01-13T04:06:20.720Z,16.02
2023-01-13T04:08:53.796Z,13.88
2023-01-13T04:11:38.866Z,16.00
2023-01-13T04:14:05.931Z,11.95
2023-01-13T04:16:32.831Z,14.93
2023-01-13T04:18:59.912Z,17.13
2023-01-13T04:21:26.872Z,16.95
2023-01-13T04:23:54.115Z,15.85
2023-01-13T04:26:23.397Z,16.40
2023-01-13T04:28:51.930Z,15.73
2023-01-13T04:31:18.925Z,17.15
2023-01-13T04:33:45.872Z,18.20
2023-01-13T04:36:12.906Z,14.40
2023-01-13T04:38:40.037Z,17.38
2023-01-13T04:41:07.014Z,22.65
2023-01-13T04:43:33.919Z,18.92
2023-01-13T04:46:00.891Z,15.00
2023-01-13T04:48:27.843Z,15.40
2023-01-13T04:50:54.759Z,17.15
2023-01-13T04:53:21.638Z,14.52
2023-01-13T04:55:49.751Z,15.07
2023-01-13T04:58:16.751Z,16.08
2023-01-13T05:00:43.703Z,16.33
2023-01-13T05:03:10.598Z,14.90
2023-01-13T05:05:38.252Z,18.70
2023-01-13T05:08:05.628Z,13.82
2023-01-13T05:10:32.598Z,15.45
2023-01-13T05:13:17.971Z,14.93
2023-01-13T05:16:06.340Z,14.57
2023-01-13T05:18:33.587Z,13.55
2023-01-13T05:21:04.785Z,15.25
2023-01-13T05:23:50.606Z,11.25
2023-01-13T05:26:17.519Z,14.68
2023-01-13T05:28:44.421Z,16.67
2023-01-13T05:31:12.191Z,16.33
2023-01-13T05:33:39.161Z,15.70
2023-01-13T05:36:06.389Z,14.13
2023-01-13T05:38:33.316Z,13.48
2023-01-13T05:41:19.094Z,17.38
2023-01-13T05:43:46.137Z,12.60
2023-01-13T05:46:13.252Z,14.77
2023-01-13T05:48:43.460Z,12.93
2023-01-13T05:51:11.690Z,11.25
2023-01-13T05:53:40.844Z,12.15
2023-01-13T05:56:08.479Z,13.10
2023-01-13T05:58:35.467Z,14.27
2023-01-13T06:01:07.270Z,14.00
2023-01-13T06:06:03.970Z,10.45
2023-01-13T06:08:31.243Z,12.13
2023-01-13T06:10:58.173Z,13.50
2023-01-13T06:13:28.001Z,13.82
2023-01-13T06:16:01.415Z,11.88
2023-01-13T06:18:28.576Z,15.82
2023-01-13T06:20:55.939Z,13.80
2023-01-13T06:23:23.162Z,15.23
2023-01-13T06:25:59.868Z,16.13
2023-01-13T06:28:26.815Z,11.18
2023-01-13T06:30:56.526Z,14.70
2023-01-13T06:33:35.285Z,13.60
2023-01-13T06:36:04.329Z,16.15
2023-01-13T06:38:32.857Z,12.50
2023-01-13T06:40:59.802Z,17.30
2023-01-13T06:43:29.755Z,16.25
2023-01-13T06:45:56.874Z,15.20
2023-01-13T06:48:29.003Z,12.25
2023-01-13T06:50:55.941Z,16.98
2023-01-13T06:53:22.887Z,14.48
2023-01-13T06:55:50.020Z,15.75
2023-01-13T06:58:17.112Z,15.02
2023-01-13T07:00:44.480Z,16.95
2023-01-13T07:03:15.011Z,14.57
2023-01-13T07:05:42.988Z,13.95
2023-01-13T07:08:10.239Z,14.57
2023-01-13T07:10:37.770Z,18.15
2023-01-13T07:13:23.583Z,13.13
2023-01-13T07:15:58.135Z,16.05
2023-01-13T07:18:27.344Z,18.58
2023-01-13T07:21:10.766Z,13.45
2023-01-13T07:23:40.189Z,14.88
2023-01-13T07:26:08.681Z,13.40
2023-01-13T07:28:35.691Z,14.80
2023-01-13T07:31:02.676Z,15.13
2023-01-13T07:33:33.133Z,19.33
2023-01-13T07:36:04.377Z,12.45
2023-01-13T07:38:31.587Z,13.60
2023-01-13T07:40:58.877Z,12.85
2023-01-13T07:43:34.852Z,12.68
2023-01-13T07:46:06.014Z,13.63
2023-01-13T07:48:33.803Z,12.52
2023-01-13T07:51:08.118Z,12.77
2023-01-13T07:53:35.216Z,15.48
2023-01-13T07:56:02.714Z,15.32
2023-01-13T07:58:29.787Z,12.57
2023-01-13T08:00:56.909Z,16.38
2023-01-13T08:03:24.039Z,14.13
2023-01-13T08:05:51.075Z,14.20
2023-01-13T08:08:18.186Z,14.40
2023-01-13T08:10:45.189Z,15.10
2023-01-13T08:13:19.953Z,11.80
2023-01-13T08:15:49.143Z,17.25
2023-01-13T08:18:17.782Z,15.90
2023-01-13T08:20:44.787Z,16.40
2023-01-13T08:23:11.777Z,16.75
2023-01-13T08:25:38.993Z,13.13
2023-01-13T08:28:06.149Z,14.77
2023-01-13T08:30:33.156Z,14.07
2023-01-13T08:33:00.159Z,11.45
2023-01-13T08:35:27.137Z,13.43
2023-01-13T08:37:54.246Z,16.58
2023-01-13T08:40:22.318Z,17.65
2023-01-13T08:42:49.329Z,16.00
2023-01-13T08:45:16.384Z,14.80
2023-01-13T08:47:43.305Z,14.98
2023-01-13T08:50:10.809Z,14.05
2023-01-13T08:52:37.740Z,15.93
2023-01-13T08:55:05.129Z,14.85
2023-01-13T08:57:32.123Z,16.17
2023-01-13T08:59:59.111Z,14.07
2023-01-13T09:02:26.456Z,12.25
2023-01-13T09:04:53.585Z,15.85
2023-01-13T09:07:20.534Z,14.35
2023-01-13T09:09:47.625Z,15.43
2023-01-13T09:12:34.077Z,17.65
2023-01-13T09:15:01.553Z,17.20
2023-01-13T09:17:28.999Z,15.85
2023-01-13T09:19:56.165Z,13.95
2023-01-13T09:22:27.260Z,12.52
2023-01-13T09:24:54.949Z,16.90
2023-01-13T09:27:22.401Z,14.48
2023-01-13T09:29:49.820Z,12.48
2023-01-13T09:32:16.838Z,13.38
2023-01-13T09:35:02.038Z,14.50
2023-01-13T09:37:37.060Z,17.95
2023-01-13T09:40:06.115Z,14.88
2023-01-13T09:42:56.008Z,13.65
2023-01-13T09:45:43.283Z,13.98
2023-01-13T09:48:27.980Z,14.25
2023-01-13T09:51:06.885Z,11.02
2023-01-13T09:54:23.821Z,14.35
2023-01-13T09:56:51.300Z,16.20
2023-01-13T09:59:18.284Z,10.23
2023-01-13T10:01:57.505Z,14.65
2023-01-13T10:04:24.594Z,11.15
2023-01-13T10:06:58.158Z,13.27
2023-01-13T10:09:47.826Z,12.90
2023-01-13T10:12:35.722Z,10.63
2023-01-13T10:15:03.995Z,11.88
2023-01-13T10:17:34.935Z,11.13
2023-01-13T10:20:19.039Z,10.63
2023-01-13T10:22:53.285Z,11.88
2023-01-13T10:25:42.422Z,9.50
2023-01-13T10:28:11.911Z,11.40
2023-01-13T10:30:41.336Z,11.02
2023-01-13T10:33:15.912Z,12.35
2023-01-13T10:36:15.553Z,13.10
2023-01-13T10:38:47.003Z,14.27
2023-01-13T10:41:19.978Z,13.32
2023-01-13T10:43:53.169Z,11.43
2023-01-13T10:46:20.581Z,12.80
2023-01-13T10:48:57.935Z,13.10
2023-01-13T10:51:30.834Z,11.73
2023-01-13T10:54:00.039Z,10.85
2023-01-13T10:56:29.856Z,10.35
2023-01-13T10:59:29.974Z,10.73
2023-01-13T11:02:19.712Z,10.50
2023-01-13T11:04:54.365Z,13.35
2023-01-13T11:07:40.905Z,9.70
2023-01-13T11:10:29.443Z,12.88
2023-01-13T11:13:16.507Z,13.60
2023-01-13T11:15:58.155Z,10.73
2023-01-13T11:18:52.136Z,10.32
2023-01-13T11:21:24.871Z,12.15
2023-01-13T11:24:07.632Z,11.05
2023-01-13T11:26:44.470Z,12.63
2023-01-13T11:29:39.479Z,10.23
2023-01-13T11:32:21.750Z,12.38
2023-01-13T11:34:53.929Z,13.48
2023-01-13T11:37:30.717Z,11.60
2023-01-13T11:40:06.489Z,11.43
2023-01-13T11:42:55.645Z,15.50
2023-01-13T11:45:45.756Z,10.77
2023-01-13T11:48:20.964Z,11.88
2023-01-13T11:50:53.971Z,10.25
2023-01-13T11:53:44.456Z,14.27
2023-01-13T11:56:24.478Z,12.30
2023-01-13T11:59:00.549Z,11.07
2023-01-13T12:01:43.693Z,8.77
2023-01-13T12:04:40.137Z,9.88
2023-01-13T12:07:35.207Z,11.65
2023-01-13T12:10:17.571Z,10.95
2023-01-13T12:13:02.127Z,10.05
2023-01-13T12:15:41.038Z,10.57
2023-01-13T12:18:53.462Z,10.30
2023-01-13T12:24:13.348Z,10.48
2023-01-13T12:26:47.946Z,9.63
2023-01-13T12:29:19.438Z,12.32
2023-01-13T12:31:49.573Z,11.35
2023-01-13T12:34:28.938Z,10.40
2023-01-13T12:37:01.245Z,12.15
2023-01-13T12:39:46.077Z,11.43
2023-01-13T12:42:46.962Z,11.73
2023-01-13T12:45:14.056Z,9.48
2023-01-13T12:47:45.661Z,12.25
2023-01-13T12:50:27.575Z,13.95
2023-01-13T12:53:15.426Z,10.23
2023-01-13T12:55:42.451Z,11.88
2023-01-13T12:58:09.440Z,12.60
2023-01-13T13:00:40.953Z,10.55
2023-01-13T13:03:10.647Z,11.57
2023-01-13T13:06:07.641Z,10.40
2023-01-13T13:09:00.648Z,8.57
2023-01-13T13:11:55.219Z,12.25
2023-01-13T13:14:40.171Z,12.18
2023-01-13T13:17:29.130Z,12.07
2023-01-13T13:19:56.904Z,8.93
2023-01-13T13:22:26.924Z,10.77
2023-01-13T13:24:57.648Z,10.15
2023-01-13T13:27:55.882Z,12.05
2023-01-13T13:30:29.418Z,11.70
2023-01-13T13:33:05.711Z,10.20
2023-01-13T13:35:36.634Z,12.73
2023-01-13T13:38:41.662Z,9.10
2023-01-13T13:41:35.085Z,11.55
2023-01-13T13:44:51.448Z,11.48
2023-01-13T13:47:18.616Z,11.70
2023-01-13T13:49:49.966Z,10.20
2023-01-13T13:52:43.949Z,7.80
2023-01-13T13:55:19.149Z,10.68
2023-01-13T13:57:48.051Z,8.82
2023-01-13T14:00:15.509Z,11.52
2023-01-13T14:02:48.072Z,10.90
2023-01-13T14:05:18.360Z,12.52
2023-01-13T14:08:01.010Z,8.25
2023-01-13T14:10:36.433Z,12.32
2023-01-13T14:13:25.757Z,10.65
2023-01-13T14:16:02.995Z,11.55
2023-01-13T14:18:31.969Z,9.80
2023-01-13T14:21:03.925Z,12.68
2023-01-13T14:23:32.751Z,10.27
2023-01-13T14:26:06.909Z,12.48
2023-01-13T14:28:39.181Z,12.55
2023-01-13T14:31:07.102Z,11.88
2023-01-13T14:33:38.819Z,10.02
2023-01-13T14:36:09.765Z,10.00
2023-01-13T14:38:37.701Z,9.23
2023-01-13T14:41:12.665Z,11.18
2023-01-13T14:43:46.037Z,9.25
2023-01-13T14:46:13.135Z,14.20
2023-01-13T14:48:41.129Z,11.00
2023-01-13T14:51:11.042Z,8.73
2023-01-13T14:53:45.087Z,13.13
2023-01-13T14:56:37.253Z,8.48
2023-01-13T15:01:49.931Z,11.40
2023-01-13T15:04:23.147Z,9.73
2023-01-13T15:06:50.756Z,10.10
2023-01-13T15:09:24.399Z,10.82
2023-01-13T15:11:54.278Z,9.02
2023-01-13T15:14:26.337Z,9.88
2023-01-13T15:16:53.711Z,9.20
2023-01-13T15:19:20.934Z,9.52
2023-01-13T15:21:48.098Z,11.35
2023-01-13T15:24:15.041Z,11.15
2023-01-13T15:26:42.263Z,9.57
2023-01-13T15:29:11.882Z,9.20
2023-01-13T15:31:38.973Z,11.05
2023-01-13T15:34:06.183Z,9.63
2023-01-13T15:36:33.763Z,10.50
2023-01-13T15:39:01.488Z,10.32
2023-01-13T15:41:51.079Z,16.30
2023-01-13T15:44:36.462Z,12.20
2023-01-13T15:47:06.088Z,13.98
2023-01-13T15:49:40.996Z,8.77
2023-01-13T15:52:22.991Z,13.13
2023-01-13T15:57:23.625Z,9.25
2023-01-13T15:59:51.163Z,10.55
2023-01-13T16:02:22.701Z,11.88
2023-01-13T16:04:54.144Z,12.15
2023-01-13T16:07:21.962Z,11.27
2023-01-13T16:09:49.067Z,10.20
2023-01-13T16:12:16.488Z,13.05
2023-01-13T16:14:43.434Z,12.77
2023-01-13T16:17:17.885Z,11.80
2023-01-13T16:19:45.336Z,16.95
2023-01-13T16:22:14.289Z,12.50
2023-01-13T16:24:41.631Z,10.93
2023-01-13T16:27:17.185Z,10.23
2023-01-13T16:29:45.468Z,10.10
2023-01-13T16:32:13.364Z,12.45
2023-01-13T16:34:40.541Z,13.07
2023-01-13T16:37:27.403Z,10.77
2023-01-13T16:39:54.622Z,12.20
2023-01-13T16:42:21.779Z,12.15
2023-01-13T16:44:49.755Z,11.48
2023-01-13T16:47:17.733Z,13.20
2023-01-13T16:49:45.169Z,9.73
2023-01-13T16:52:12.651Z,14.75
2023-01-13T16:54:39.845Z,12.68
2023-01-13T16:57:07.885Z,14.18
2023-01-13T16:59:34.876Z,9.73
2023-01-13T17:02:02.316Z,11.82
2023-01-13T17:04:29.510Z,11.18
2023-01-13T17:07:06.475Z,13.57
2023-01-13T17:09:34.126Z,12.02
2023-01-13T17:12:01.433Z,11.82
2023-01-13T17:14:28.452Z,15.95
2023-01-13T17:16:58.305Z,13.43
2023-01-13T17:19:26.542Z,13.98
2023-01-13T17:21:54.094Z,14.27
2023-01-13T17:24:21.305Z,13.50
2023-01-13T17:26:49.770Z,15.60
2023-01-13T17:29:22.304Z,12.38
2023-01-13T17:31:50.322Z,11.98
2023-01-13T17:34:17.406Z,14.77
2023-01-13T17:36:44.457Z,14.88
2023-01-13T17:39:21.387Z,17.75
2023-01-13T17:41:48.376Z,14.60
2023-01-13T17:44:16.332Z,17.98
2023-01-13T17:46:43.404Z,12.85
2023-01-13T17:49:11.465Z,13.73
2023-01-13T17:51:38.584Z,13.93
2023-01-13T17:54:05.799Z,13.82
2023-01-13T17:56:33.042Z,13.32
2023-01-13T17:59:00.147Z,10.63
2023-01-13T18:01:30.817Z,16.70
2023-01-13T18:03:57.883Z,13.57
2023-01-13T18:06:24.980Z,16.67
2023-01-13T18:08:52.557Z,15.50
2023-01-13T18:11:21.442Z,13.57
2023-01-13T18:13:49.716Z,12.93
2023-01-13T18:16:18.450Z,15.43
2023-01-13T18:18:46.820Z,12.32
2023-01-13T18:21:39.922Z,14.82
2023-01-13T18:24:28.486Z,17.15
2023-01-13T18:27:14.072Z,17.38
2023-01-13T18:29:41.096Z,14.55
2023-01-13T18:32:11.574Z,18.13
2023-01-13T18:34:38.800Z,13.25
2023-01-13T18:37:06.798Z,21.33
2023-01-13T18:39:33.942Z,16.85
2023-01-13T18:42:19.537Z,13.00
2023-01-13T18:44:46.615Z,18.77
2023-01-13T18:47:13.728Z,19.20
2023-01-13T18:49:40.796Z,16.23
2023-01-13T18:52:07.852Z,14.65
2023-01-13T18:54:35.615Z,14.30
2023-01-13T18:57:03.163Z,18.25
2023-01-13T18:59:31.098Z,17.33
2023-01-13T19:01:58.520Z,21.17
2023-01-13T19:04:25.687Z,14.57
2023-01-13T19:06:52.660Z,12.80
2023-01-13T19:09:24.022Z,17.20
2023-01-13T19:11:51.885Z,16.88
2023-01-13T19:14:34.477Z,20.50
2023-01-13T19:17:09.753Z,16.45
2023-01-13T19:19:47.360Z,15.25
2023-01-13T19:22:16.022Z,15.18
2023-01-13T19:24:43.032Z,15.50
2023-01-13T19:27:16.749Z,14.48
2023-01-13T19:29:52.053Z,16.77
2023-01-13T19:32:20.555Z,17.48
2023-01-13T19:34:49.359Z,13.35
2023-01-13T19:37:16.535Z,15.00
2023-01-13T19:39:43.550Z,18.02
2023-01-13T19:42:30.280Z,15.60
2023-01-13T19:45:15.808Z,15.82
2023-01-13T19:47:45.374Z,18.20
2023-01-13T19:50:12.730Z,19.80
2023-01-13T19:52:39.782Z,20.25
2023-01-13T19:55:07.303Z,18.48
2023-01-13T19:57:34.260Z,19.58
2023-01-13T20:00:01.359Z,15.55
2023-01-13T20:02:28.526Z,14.07
2023-01-13T20:04:59.234Z,20.08
2023-01-13T20:07:27.246Z,16.08
2023-01-13T20:09:56.364Z,15.90
2023-01-13T20:12:26.614Z,17.00
2023-01-13T20:14:53.641Z,17.00
2023-01-13T20:17:21.747Z,16.85
2023-01-13T20:19:48.753Z,16.23
2023-01-13T20:22:16.110Z,19.90
2023-01-13T20:24:43.807Z,16.83
2023-01-13T20:27:10.930Z,15.50
2023-01-13T20:29:38.049Z,17.00
2023-01-13T20:32:05.243Z,14.73
2023-01-13T20:34:32.243Z,17.70
2023-01-13T20:37:00.273Z,18.40
2023-01-13T20:39:27.309Z,18.60
2023-01-13T20:42:13.350Z,16.95
2023-01-13T20:44:40.553Z,16.65
2023-01-13T20:47:07.766Z,18.70
2023-01-13T20:49:36.872Z,19.30
2023-01-13T20:52:09.307Z,15.75
2023-01-13T20:54:37.666Z,17.77
2023-01-13T20:57:07.964Z,15.98
2023-01-13T20:59:36.834Z,17.25
2023-01-13T21:02:05.109Z,18.45
2023-01-13T21:04:32.112Z,15.32
2023-01-13T21:06:59.093Z,18.83
2023-01-13T21:09:27.374Z,14.52
2023-01-13T21:12:13.164Z,22.33
2023-01-13T21:14:58.564Z,15.75
2023-01-13T21:17:44.522Z,19.42
2023-01-13T21:20:13.156Z,17.05
2023-01-13T21:22:40.809Z,16.42
2023-01-13T21:25:08.117Z,18.35
2023-01-13T21:27:35.077Z,18.75
2023-01-13T21:30:02.045Z,18.63
2023-01-13T21:32:28.993Z,15.73
2023-01-13T21:34:56.061Z,17.85
2023-01-13T21:37:26.208Z,16.38
2023-01-13T21:39:53.205Z,16.25
2023-01-13T21:42:38.819Z,16.67
2023-01-13T21:45:25.147Z,16.33
2023-01-13T21:47:52.320Z,16.73
2023-01-13T21:50:21.711Z,14.15
2023-01-13T21:52:49.186Z,15.25
2023-01-13T21:55:26.961Z,18.75
2023-01-13T21:57:57.287Z,13.25
2023-01-13T22:00:26.317Z,21.83
2023-01-13T22:02:53.414Z,16.73
2023-01-13T22:05:21.704Z,17.83
2023-01-13T22:07:48.742Z,20.75
2023-01-13T22:10:20.462Z,19.35
2023-01-13T22:12:48.162Z,16.52
2023-01-13T22:15:16.050Z,18.90
2023-01-13T22:17:43.359Z,19.17
2023-01-13T22:20:11.297Z,22.15
2023-01-13T22:22:38.822Z,17.83
2023-01-13T22:25:08.129Z,22.42
2023-01-13T22:27:45.146Z,18.48
2023-01-13T22:30:21.673Z,17.80
2023-01-13T22:32:48.759Z,18.20
2023-01-13T22:35:16.052Z,20.52
2023-01-13T22:37:43.084Z,14.20
2023-01-13T22:40:11.473Z,15.75
2023-01-13T22:42:39.541Z,20.17
2023-01-13T22:45:15.561Z,18.88
2023-01-13T22:47:42.565Z,16.95
2023-01-13T22:50:10.180Z,18.00
2023-01-13T22:52:37.172Z,19.05
2023-01-13T22:55:13.259Z,18.08
2023-01-13T22:57:47.622Z,17.30
2023-01-13T23:00:19.258Z,19.33
2023-01-13T23:02:46.761Z,19.10
2023-01-13T23:05:14.022Z,23.52
2023-01-13T23:07:41.414Z,23.35
2023-01-13T23:10:08.977Z,15.73
2023-01-13T23:12:35.880Z,16.73
2023-01-13T23:15:03.499Z,15.20
2023-01-13T23:17:30.543Z,20.15
2023-01-13T23:19:57.535Z,17.27
2023-01-13T23:22:24.501Z,20.60
2023-01-13T23:24:51.394Z,19.70
2023-01-13T23:27:18.268Z,19.55
2023-01-13T23:29:45.137Z,15.23
2023-01-13T23:32:12.129Z,23.02
2023-01-13T23:34:39.105Z,20.92
2023-01-13T23:37:06.086Z,14.85
2023-01-13T23:39:33.022Z,17.70
2023-01-13T23:42:00.077Z,20.25
2023-01-13T23:44:27.031Z,17.52
2023-01-13T23:46:54.009Z,18.88
2023-01-13T23:49:20.927Z,18.80
2023-01-13T23:51:50.911Z,20.15
2023-01-13T23:54:18.115Z,23.00
2023-01-13T23:56:45.045Z,15.45
2023-01-13T23:59:11.971Z,19.00
